sensor_id;sensor_type;location;lat;lon;timestamp;pressure;altitude;pressure_sealevel;temperature;humidity
74403;BME280;62837;51.082;13.744;2024-01-30T00:00:59;101922.93;;;4.78;63.23
74403;BME280;62837;51.082;13.744;2024-01-30T00:03:29;101923.39;;;4.79;63.11
74403;BME280;62837;51.082;13.744;2024-01-30T00:06:00;101922.56;;;4.79;62.95
74403;BME280;62837;51.082;13.744;2024-01-30T00:08:33;101921.55;;;4.79;63.15
74403;BME280;62837;51.082;13.744;2024-01-30T00:11:04;101922.02;;;4.76;63.27
74403;BME280;62837;51.082;13.744;2024-01-30T00:13:35;101920.08;;;4.76;63.14
74403;BME280;62837;51.082;13.744;2024-01-30T00:16:07;101918.98;;;4.76;62.98
74403;BME280;62837;51.082;13.744;2024-01-30T00:18:38;101915.77;;;4.75;62.98
74403;BME280;62837;51.082;13.744;2024-01-30T00:21:09;101917.96;;;4.77;62.74
74403;BME280;62837;51.082;13.744;2024-01-30T00:23:40;101912.56;;;4.78;62.83
74403;BME280;62837;51.082;13.744;2024-01-30T00:26:11;101913.66;;;4.78;63.01
74403;BME280;62837;51.082;13.744;2024-01-30T00:28:42;101911.06;;;4.78;62.83
74403;BME280;62837;51.082;13.744;2024-01-30T00:31:13;101911.27;;;4.78;63.04
74403;BME280;62837;51.082;13.744;2024-01-30T00:33:44;101912.28;;;4.78;62.58
74403;BME280;62837;51.082;13.744;2024-01-30T00:36:15;101908.05;;;4.78;62.70
74403;BME280;62837;51.082;13.744;2024-01-30T00:38:46;101910.48;;;4.77;62.69
74403;BME280;62837;51.082;13.744;2024-01-30T00:41:18;101908.63;;;4.76;62.78
74403;BME280;62837;51.082;13.744;2024-01-30T00:43:49;101906.62;;;4.76;62.52
74403;BME280;62837;51.082;13.744;2024-01-30T00:46:20;101907.41;;;4.75;62.86
74403;BME280;62837;51.082;13.744;2024-01-30T00:48:52;101908.20;;;4.75;62.69
74403;BME280;62837;51.082;13.744;2024-01-30T00:51:23;101902.93;;;4.73;62.46
74403;BME280;62837;51.082;13.744;2024-01-30T00:53:54;101906.13;;;4.71;62.97
74403;BME280;62837;51.082;13.744;2024-01-30T00:56:25;101906.17;;;4.69;62.54
74403;BME280;62837;51.082;13.744;2024-01-30T00:58:56;101903.39;;;4.68;62.51
74403;BME280;62837;51.082;13.744;2024-01-30T01:01:26;101911.89;;;4.67;62.66
74403;BME280;62837;51.082;13.744;2024-01-30T01:03:57;101910.02;;;4.66;62.73
74403;BME280;62837;51.082;13.744;2024-01-30T01:06:29;101915.09;;;4.64;62.72
74403;BME280;62837;51.082;13.744;2024-01-30T01:08:59;101916.19;;;4.61;62.72
74403;BME280;62837;51.082;13.744;2024-01-30T01:11:34;101914.69;;;4.60;62.77
74403;BME280;62837;51.082;13.744;2024-01-30T01:14:05;101911.70;;;4.59;62.53
74403;BME280;62837;51.082;13.744;2024-01-30T01:16:36;101915.75;;;4.59;62.61
74403;BME280;62837;51.082;13.744;2024-01-30T01:19:07;101907.70;;;4.58;62.56
74403;BME280;62837;51.082;13.744;2024-01-30T01:21:37;101907.82;;;4.57;62.78
74403;BME280;62837;51.082;13.744;2024-01-30T01:24:08;101909.52;;;4.56;62.67
74403;BME280;62837;51.082;13.744;2024-01-30T01:26:39;101911.53;;;4.56;62.59
74403;BME280;62837;51.082;13.744;2024-01-30T01:29:10;101908.23;;;4.55;62.61
74403;BME280;62837;51.082;13.744;2024-01-30T01:31:41;101910.14;;;4.54;62.70
74403;BME280;62837;51.082;13.744;2024-01-30T01:34:14;101909.22;;;4.53;62.70
74403;BME280;62837;51.082;13.744;2024-01-30T01:36:45;101907.41;;;4.53;62.54
74403;BME280;62837;51.082;13.744;2024-01-30T01:39:15;101904.83;;;4.52;62.27
74403;BME280;62837;51.082;13.744;2024-01-30T01:41:46;101904.02;;;4.51;62.95
74403;BME280;62837;51.082;13.744;2024-01-30T01:44:17;101905.75;;;4.50;62.78
74403;BME280;62837;51.082;13.744;2024-01-30T01:46:48;101903.59;;;4.48;63.16
74403;BME280;62837;51.082;13.744;2024-01-30T01:49:22;101905.71;;;4.47;63.00
74403;BME280;62837;51.082;13.744;2024-01-30T01:51:52;101907.70;;;4.48;62.92
74403;BME280;62837;51.082;13.744;2024-01-30T01:54:26;101909.70;;;4.46;63.05
74403;BME280;62837;51.082;13.744;2024-01-30T01:56:58;101903.89;;;4.45;62.96
74403;BME280;62837;51.082;13.744;2024-01-30T01:59:30;101907.02;;;4.43;62.69
74403;BME280;62837;51.082;13.744;2024-01-30T02:02:01;101908.80;;;4.40;63.14
74403;BME280;62837;51.082;13.744;2024-01-30T02:04:33;101902.06;;;4.39;62.97
74403;BME280;62837;51.082;13.744;2024-01-30T02:07:04;101903.31;;;4.37;63.23
74403;BME280;62837;51.082;13.744;2024-01-30T02:09:35;101898.17;;;4.36;63.05
74403;BME280;62837;51.082;13.744;2024-01-30T02:12:07;101897.98;;;4.35;63.02
74403;BME280;62837;51.082;13.744;2024-01-30T02:14:47;101897.15;;;4.34;63.23
74403;BME280;62837;51.082;13.744;2024-01-30T02:17:18;101895.48;;;4.34;63.45
74403;BME280;62837;51.082;13.744;2024-01-30T02:19:49;101889.85;;;4.33;63.24
74403;BME280;62837;51.082;13.744;2024-01-30T02:22:20;101891.37;;;4.31;63.44
74403;BME280;62837;51.082;13.744;2024-01-30T02:24:52;101896.20;;;4.30;63.52
74403;BME280;62837;51.082;13.744;2024-01-30T02:27:23;101894.38;;;4.28;63.39
74403;BME280;62837;51.082;13.744;2024-01-30T02:29:54;101898.27;;;4.28;63.40
74403;BME280;62837;51.082;13.744;2024-01-30T02:32:24;101891.13;;;4.27;63.34
74403;BME280;62837;51.082;13.744;2024-01-30T02:34:56;101891.06;;;4.26;63.54
74403;BME280;62837;51.082;13.744;2024-01-30T02:37:26;101888.31;;;4.24;63.55
74403;BME280;62837;51.082;13.744;2024-01-30T02:39:57;101885.98;;;4.23;63.44
74403;BME280;62837;51.082;13.744;2024-01-30T02:42:28;101887.26;;;4.21;63.60
74403;BME280;62837;51.082;13.744;2024-01-30T02:44:59;101886.51;;;4.21;64.52
74403;BME280;62837;51.082;13.744;2024-01-30T02:47:30;101883.48;;;4.28;65.45
74403;BME280;62837;51.082;13.744;2024-01-30T02:50:01;101880.41;;;4.30;64.13
74403;BME280;62837;51.082;13.744;2024-01-30T02:52:32;101878.89;;;4.29;64.35
74403;BME280;62837;51.082;13.744;2024-01-30T02:55:04;101878.77;;;4.27;63.89
74403;BME280;62837;51.082;13.744;2024-01-30T02:57:35;101881.04;;;4.23;63.96
74403;BME280;62837;51.082;13.744;2024-01-30T03:00:08;101881.80;;;4.18;63.96
74403;BME280;62837;51.082;13.744;2024-01-30T03:02:39;101883.20;;;4.17;64.30
74403;BME280;62837;51.082;13.744;2024-01-30T03:05:10;101879.46;;;4.15;63.92
74403;BME280;62837;51.082;13.744;2024-01-30T03:07:42;101880.98;;;4.13;64.26
74403;BME280;62837;51.082;13.744;2024-01-30T03:10:13;101879.73;;;4.13;64.32
74403;BME280;62837;51.082;13.744;2024-01-30T03:12:44;101878.00;;;4.12;64.15
74403;BME280;62837;51.082;13.744;2024-01-30T03:15:16;101877.83;;;4.11;64.30
74403;BME280;62837;51.082;13.744;2024-01-30T03:17:47;101880.25;;;4.10;64.48
74403;BME280;62837;51.082;13.744;2024-01-30T03:20:17;101883.24;;;4.09;64.54
74403;BME280;62837;51.082;13.744;2024-01-30T03:22:48;101880.02;;;4.09;64.49
74403;BME280;62837;51.082;13.744;2024-01-30T03:25:19;101875.14;;;4.07;64.63
74403;BME280;62837;51.082;13.744;2024-01-30T03:27:50;101873.78;;;4.06;64.25
74403;BME280;62837;51.082;13.744;2024-01-30T03:30:21;101869.70;;;4.04;64.16
74403;BME280;62837;51.082;13.744;2024-01-30T03:32:52;101875.04;;;4.05;64.39
74403;BME280;62837;51.082;13.744;2024-01-30T03:35:22;101871.23;;;4.05;64.51
74403;BME280;62837;51.082;13.744;2024-01-30T03:37:53;101871.67;;;4.04;64.19
74403;BME280;62837;51.082;13.744;2024-01-30T03:40:24;101873.17;;;4.05;64.51
74403;BME280;62837;51.082;13.744;2024-01-30T03:42:55;101873.16;;;4.05;64.45
74403;BME280;62837;51.082;13.744;2024-01-30T03:45:26;101872.15;;;4.05;64.19
74403;BME280;62837;51.082;13.744;2024-01-30T03:47:57;101867.90;;;4.04;64.62
74403;BME280;62837;51.082;13.744;2024-01-30T03:50:27;101866.20;;;4.04;64.37
74403;BME280;62837;51.082;13.744;2024-01-30T03:52:58;101871.73;;;4.05;64.39
74403;BME280;62837;51.082;13.744;2024-01-30T03:55:29;101872.38;;;4.04;64.50
74403;BME280;62837;51.082;13.744;2024-01-30T03:58:00;101872.21;;;4.01;64.37
74403;BME280;62837;51.082;13.744;2024-01-30T04:00:32;101872.40;;;3.98;64.46
74403;BME280;62837;51.082;13.744;2024-01-30T04:03:03;101871.05;;;3.97;64.76
74403;BME280;62837;51.082;13.744;2024-01-30T04:05:34;101868.09;;;3.98;64.66
74403;BME280;62837;51.082;13.744;2024-01-30T04:08:06;101868.52;;;3.99;64.63
74403;BME280;62837;51.082;13.744;2024-01-30T04:10:37;101865.38;;;3.99;64.76
74403;BME280;62837;51.082;13.744;2024-01-30T04:13:08;101867.21;;;3.99;65.04
74403;BME280;62837;51.082;13.744;2024-01-30T04:15:41;101863.52;;;3.98;64.73
74403;BME280;62837;51.082;13.744;2024-01-30T04:18:12;101864.23;;;3.98;64.77
74403;BME280;62837;51.082;13.744;2024-01-30T04:20:43;101864.84;;;3.98;64.91
74403;BME280;62837;51.082;13.744;2024-01-30T04:23:15;101863.86;;;3.98;64.73
74403;BME280;62837;51.082;13.744;2024-01-30T04:25:46;101868.71;;;3.97;64.80
74403;BME280;62837;51.082;13.744;2024-01-30T04:28:18;101861.91;;;3.96;64.97
74403;BME280;62837;51.082;13.744;2024-01-30T04:30:49;101864.19;;;3.95;65.09
74403;BME280;62837;51.082;13.744;2024-01-30T04:33:20;101860.88;;;3.96;65.32
74403;BME280;62837;51.082;13.744;2024-01-30T04:35:51;101858.91;;;3.96;64.84
74403;BME280;62837;51.082;13.744;2024-01-30T04:38:22;101859.93;;;3.96;64.76
74403;BME280;62837;51.082;13.744;2024-01-30T04:40:53;101858.50;;;3.96;65.20
74403;BME280;62837;51.082;13.744;2024-01-30T04:43:24;101862.31;;;3.96;65.04
74403;BME280;62837;51.082;13.744;2024-01-30T04:45:56;101857.42;;;3.98;64.99
74403;BME280;62837;51.082;13.744;2024-01-30T04:48:27;101851.86;;;3.97;64.86
74403;BME280;62837;51.082;13.744;2024-01-30T04:50:58;101853.06;;;3.98;64.75
74403;BME280;62837;51.082;13.744;2024-01-30T04:53:32;101852.81;;;3.98;65.30
74403;BME280;62837;51.082;13.744;2024-01-30T04:56:04;101850.20;;;3.97;65.30
74403;BME280;62837;51.082;13.744;2024-01-30T04:58:35;101850.00;;;3.97;65.36
74403;BME280;62837;51.082;13.744;2024-01-30T05:01:06;101848.67;;;3.96;65.12
74403;BME280;62837;51.082;13.744;2024-01-30T05:03:37;101849.69;;;3.95;65.19
74403;BME280;62837;51.082;13.744;2024-01-30T05:06:09;101855.88;;;3.95;65.22
74403;BME280;62837;51.082;13.744;2024-01-30T05:08:39;101854.33;;;3.95;65.02
74403;BME280;62837;51.082;13.744;2024-01-30T05:11:10;101852.74;;;3.93;65.22
74403;BME280;62837;51.082;13.744;2024-01-30T05:13:41;101852.06;;;3.90;64.86
74403;BME280;62837;51.082;13.744;2024-01-30T05:16:12;101852.86;;;3.90;65.15
74403;BME280;62837;51.082;13.744;2024-01-30T05:18:43;101849.92;;;3.90;65.39
74403;BME280;62837;51.082;13.744;2024-01-30T05:21:14;101850.04;;;3.89;65.08
74403;BME280;62837;51.082;13.744;2024-01-30T05:23:45;101855.15;;;3.89;65.37
74403;BME280;62837;51.082;13.744;2024-01-30T05:26:16;101853.89;;;3.88;65.52
74403;BME280;62837;51.082;13.744;2024-01-30T05:28:47;101852.33;;;3.88;65.25
74403;BME280;62837;51.082;13.744;2024-01-30T05:31:18;101844.85;;;3.88;65.32
74403;BME280;62837;51.082;13.744;2024-01-30T05:33:49;101840.33;;;3.88;65.52
74403;BME280;62837;51.082;13.744;2024-01-30T05:36:20;101844.38;;;3.88;65.53
74403;BME280;62837;51.082;13.744;2024-01-30T05:38:51;101847.38;;;3.87;65.38
74403;BME280;62837;51.082;13.744;2024-01-30T05:41:22;101843.52;;;3.87;65.43
74403;BME280;62837;51.082;13.744;2024-01-30T05:43:53;101846.33;;;3.87;65.80
74403;BME280;62837;51.082;13.744;2024-01-30T05:46:24;101851.22;;;3.87;65.22
74403;BME280;62837;51.082;13.744;2024-01-30T05:48:55;101848.84;;;3.87;65.22
74403;BME280;62837;51.082;13.744;2024-01-30T05:51:26;101852.00;;;3.86;65.54
74403;BME280;62837;51.082;13.744;2024-01-30T05:53:57;101855.44;;;3.86;65.57
74403;BME280;62837;51.082;13.744;2024-01-30T05:56:28;101852.91;;;3.86;65.66
74403;BME280;62837;51.082;13.744;2024-01-30T05:58:59;101849.80;;;3.85;65.32
74403;BME280;62837;51.082;13.744;2024-01-30T06:01:30;101846.90;;;3.85;65.34
74403;BME280;62837;51.082;13.744;2024-01-30T06:04:02;101850.43;;;3.86;65.55
74403;BME280;62837;51.082;13.744;2024-01-30T06:06:33;101847.04;;;3.85;65.62
74403;BME280;62837;51.082;13.744;2024-01-30T06:09:04;101848.73;;;3.82;65.67
74403;BME280;62837;51.082;13.744;2024-01-30T06:11:34;101851.09;;;3.79;65.89
74403;BME280;62837;51.082;13.744;2024-01-30T06:14:05;101853.19;;;3.78;66.03
74403;BME280;62837;51.082;13.744;2024-01-30T06:16:36;101855.73;;;3.76;65.94
74403;BME280;62837;51.082;13.744;2024-01-30T06:19:07;101854.04;;;3.75;65.85
74403;BME280;62837;51.082;13.744;2024-01-30T06:21:38;101857.30;;;3.77;66.59
74403;BME280;62837;51.082;13.744;2024-01-30T06:24:09;101851.84;;;3.80;66.14
74403;BME280;62837;51.082;13.744;2024-01-30T06:26:40;101852.48;;;3.81;66.51
74403;BME280;62837;51.082;13.744;2024-01-30T06:29:11;101854.20;;;3.84;67.43
74403;BME280;62837;51.082;13.744;2024-01-30T06:31:43;101852.13;;;3.88;67.76
74403;BME280;62837;51.082;13.744;2024-01-30T06:34:14;101852.09;;;3.94;67.81
74403;BME280;62837;51.082;13.744;2024-01-30T06:36:46;101852.17;;;3.97;67.43
74403;BME280;62837;51.082;13.744;2024-01-30T06:39:16;101848.26;;;3.97;66.38
74403;BME280;62837;51.082;13.744;2024-01-30T06:41:47;101848.41;;;3.99;69.39
74403;BME280;62837;51.082;13.744;2024-01-30T06:44:19;101843.30;;;4.54;76.83
74403;BME280;62837;51.082;13.744;2024-01-30T06:46:49;101841.36;;;4.81;68.36
74403;BME280;62837;51.082;13.744;2024-01-30T06:49:20;101840.95;;;4.78;66.33
74403;BME280;62837;51.082;13.744;2024-01-30T06:51:51;101840.98;;;4.68;65.43
74403;BME280;62837;51.082;13.744;2024-01-30T06:54:22;101837.23;;;4.57;65.19
74403;BME280;62837;51.082;13.744;2024-01-30T06:56:53;101844.39;;;4.48;65.41
74403;BME280;62837;51.082;13.744;2024-01-30T06:59:24;101840.16;;;4.42;65.05
74403;BME280;62837;51.082;13.744;2024-01-30T07:01:54;101846.54;;;4.30;65.14
74403;BME280;62837;51.082;13.744;2024-01-30T07:04:26;101850.91;;;4.24;65.11
74403;BME280;62837;51.082;13.744;2024-01-30T07:06:57;101850.05;;;4.18;65.06
74403;BME280;62837;51.082;13.744;2024-01-30T07:09:28;101857.54;;;4.12;65.20
74403;BME280;62837;51.082;13.744;2024-01-30T07:11:59;101852.89;;;4.09;65.20
74403;BME280;62837;51.082;13.744;2024-01-30T07:14:30;101862.21;;;4.15;67.27
74403;BME280;62837;51.082;13.744;2024-01-30T07:17:01;101857.61;;;4.20;65.58
74403;BME280;62837;51.082;13.744;2024-01-30T07:19:32;101854.40;;;4.23;65.59
74403;BME280;62837;51.082;13.744;2024-01-30T07:22:04;101854.83;;;4.24;64.92
74403;BME280;62837;51.082;13.744;2024-01-30T07:24:35;101865.88;;;4.25;65.05
74403;BME280;62837;51.082;13.744;2024-01-30T07:27:06;101853.77;;;4.25;64.88
74403;BME280;62837;51.082;13.744;2024-01-30T07:29:37;101853.30;;;4.26;64.58
74403;BME280;62837;51.082;13.744;2024-01-30T07:32:08;101848.34;;;4.28;64.79
74403;BME280;62837;51.082;13.744;2024-01-30T07:34:39;101849.94;;;4.33;64.64
74403;BME280;62837;51.082;13.744;2024-01-30T07:37:27;101849.92;;;4.42;64.58
74403;BME280;62837;51.082;13.744;2024-01-30T07:39:58;101845.97;;;4.58;64.33
74403;BME280;62837;51.082;13.744;2024-01-30T07:42:30;101850.35;;;4.80;63.90
74403;BME280;62837;51.082;13.744;2024-01-30T07:45:01;101854.73;;;5.01;63.14
74403;BME280;62837;51.082;13.744;2024-01-30T07:47:33;101851.95;;;5.14;62.59
74403;BME280;62837;51.082;13.744;2024-01-30T07:50:05;101847.52;;;5.30;62.42
74403;BME280;62837;51.082;13.744;2024-01-30T07:52:36;101842.15;;;5.49;62.22
74403;BME280;62837;51.082;13.744;2024-01-30T07:55:09;101840.64;;;5.69;61.73
74403;BME280;62837;51.082;13.744;2024-01-30T07:57:41;101842.31;;;5.92;61.25
74403;BME280;62837;51.082;13.744;2024-01-30T08:00:14;101847.80;;;6.13;60.64
74403;BME280;62837;51.082;13.744;2024-01-30T08:02:45;101847.99;;;6.28;60.19
74403;BME280;62837;51.082;13.744;2024-01-30T08:05:16;101844.73;;;6.38;59.66
74403;BME280;62837;51.082;13.744;2024-01-30T08:07:47;101840.81;;;6.47;59.30
74403;BME280;62837;51.082;13.744;2024-01-30T08:10:18;101848.92;;;6.57;58.94
74403;BME280;62837;51.082;13.744;2024-01-30T08:12:50;101839.88;;;6.66;58.59
74403;BME280;62837;51.082;13.744;2024-01-30T08:15:21;101840.45;;;6.75;58.57
74403;BME280;62837;51.082;13.744;2024-01-30T08:17:51;101837.70;;;6.82;58.26
74403;BME280;62837;51.082;13.744;2024-01-30T08:20:27;101839.31;;;6.85;57.91
74403;BME280;62837;51.082;13.744;2024-01-30T08:22:58;101831.13;;;6.88;57.68
74403;BME280;62837;51.082;13.744;2024-01-30T08:25:30;101835.38;;;6.89;57.40
74403;BME280;62837;51.082;13.744;2024-01-30T08:28:01;101837.19;;;6.86;57.46
74403;BME280;62837;51.082;13.744;2024-01-30T08:30:32;101842.19;;;6.87;57.46
74403;BME280;62837;51.082;13.744;2024-01-30T08:33:03;101841.38;;;6.90;57.35
74403;BME280;62837;51.082;13.744;2024-01-30T08:35:34;101841.39;;;6.99;57.36
74403;BME280;62837;51.082;13.744;2024-01-30T08:38:06;101845.70;;;7.09;57.08
74403;BME280;62837;51.082;13.744;2024-01-30T08:40:36;101840.40;;;7.15;56.94
74403;BME280;62837;51.082;13.744;2024-01-30T08:43:07;101842.39;;;7.24;56.71
74403;BME280;62837;51.082;13.744;2024-01-30T08:45:40;101848.24;;;7.30;56.20
74403;BME280;62837;51.082;13.744;2024-01-30T08:48:11;101840.70;;;7.25;55.75
74403;BME280;62837;51.082;13.744;2024-01-30T08:50:42;101839.95;;;7.19;55.91
74403;BME280;62837;51.082;13.744;2024-01-30T08:53:13;101845.47;;;7.25;56.12
74403;BME280;62837;51.082;13.744;2024-01-30T08:55:44;101846.63;;;7.39;55.88
74403;BME280;62837;51.082;13.744;2024-01-30T08:58:15;101847.31;;;7.48;55.38
74403;BME280;62837;51.082;13.744;2024-01-30T09:00:48;101848.95;;;7.54;55.38
74403;BME280;62837;51.082;13.744;2024-01-30T09:03:19;101852.62;;;7.57;55.25
74403;BME280;62837;51.082;13.744;2024-01-30T09:05:50;101849.83;;;7.57;54.93
74403;BME280;62837;51.082;13.744;2024-01-30T09:08:21;101852.70;;;7.49;55.07
74403;BME280;62837;51.082;13.744;2024-01-30T09:10:52;101855.20;;;7.51;55.30
74403;BME280;62837;51.082;13.744;2024-01-30T09:13:24;101861.24;;;7.58;54.92
74403;BME280;62837;51.082;13.744;2024-01-30T09:15:55;101862.63;;;7.61;54.96
74403;BME280;62837;51.082;13.744;2024-01-30T09:18:26;101867.55;;;7.64;54.65
74403;BME280;62837;51.082;13.744;2024-01-30T09:20:58;101874.27;;;7.68;54.57
74403;BME280;62837;51.082;13.744;2024-01-30T09:23:29;101874.70;;;7.70;54.59
74403;BME280;62837;51.082;13.744;2024-01-30T09:26:01;101882.73;;;7.66;54.38
74403;BME280;62837;51.082;13.744;2024-01-30T09:28:32;101877.20;;;7.61;54.48
74403;BME280;62837;51.082;13.744;2024-01-30T09:31:03;101866.51;;;7.58;54.46
74403;BME280;62837;51.082;13.744;2024-01-30T09:33:34;101859.45;;;7.59;54.44
74403;BME280;62837;51.082;13.744;2024-01-30T09:36:08;101863.05;;;7.64;54.48
74403;BME280;62837;51.082;13.744;2024-01-30T09:38:38;101862.25;;;7.71;54.16
74403;BME280;62837;51.082;13.744;2024-01-30T09:41:11;101864.05;;;7.73;54.34
74403;BME280;62837;51.082;13.744;2024-01-30T09:43:43;101861.23;;;7.74;53.83
74403;BME280;62837;51.082;13.744;2024-01-30T09:46:19;101858.78;;;7.76;53.80
74403;BME280;62837;51.082;13.744;2024-01-30T09:48:52;101858.94;;;7.77;53.88
74403;BME280;62837;51.082;13.744;2024-01-30T09:51:25;101848.45;;;7.77;53.93
74403;BME280;62837;51.082;13.744;2024-01-30T09:53:57;101845.14;;;7.74;53.71
74403;BME280;62837;51.082;13.744;2024-01-30T09:56:28;101846.20;;;7.72;53.43
74403;BME280;62837;51.082;13.744;2024-01-30T09:58:59;101837.38;;;7.68;53.56
74403;BME280;62837;51.082;13.744;2024-01-30T10:01:31;101844.80;;;7.66;53.65
74403;BME280;62837;51.082;13.744;2024-01-30T10:04:02;101848.15;;;7.65;53.65
74403;BME280;62837;51.082;13.744;2024-01-30T10:06:35;101843.30;;;7.64;53.67
74403;BME280;62837;51.082;13.744;2024-01-30T10:09:06;101842.65;;;7.59;53.52
74403;BME280;62837;51.082;13.744;2024-01-30T10:11:38;101837.36;;;7.54;53.51
74403;BME280;62837;51.082;13.744;2024-01-30T10:14:09;101832.45;;;7.49;53.79
74403;BME280;62837;51.082;13.744;2024-01-30T10:16:40;101837.64;;;7.50;53.97
74403;BME280;62837;51.082;13.744;2024-01-30T10:19:11;101830.53;;;7.51;53.98
74403;BME280;62837;51.082;13.744;2024-01-30T10:21:43;101827.95;;;7.56;54.01
74403;BME280;62837;51.082;13.744;2024-01-30T10:24:14;101823.59;;;7.62;54.06
74403;BME280;62837;51.082;13.744;2024-01-30T10:26:46;101831.77;;;7.65;53.65
74403;BME280;62837;51.082;13.744;2024-01-30T10:29:18;101830.80;;;7.66;53.38
74403;BME280;62837;51.082;13.744;2024-01-30T10:31:59;101820.71;;;7.62;53.58
74403;BME280;62837;51.082;13.744;2024-01-30T10:34:30;101822.77;;;7.59;53.49
74403;BME280;62837;51.082;13.744;2024-01-30T10:37:07;101822.92;;;7.54;53.55
74403;BME280;62837;51.082;13.744;2024-01-30T10:39:43;101814.18;;;7.49;54.14
74403;BME280;62837;51.082;13.744;2024-01-30T10:42:15;101819.52;;;7.49;53.93
74403;BME280;62837;51.082;13.744;2024-01-30T10:45:00;101813.33;;;7.46;54.30
74403;BME280;62837;51.082;13.744;2024-01-30T10:47:35;101801.59;;;7.49;54.28
74403;BME280;62837;51.082;13.744;2024-01-30T10:50:09;101807.89;;;7.52;54.07
74403;BME280;62837;51.082;13.744;2024-01-30T10:52:40;101799.54;;;7.51;53.90
74403;BME280;62837;51.082;13.744;2024-01-30T10:55:14;101801.06;;;7.52;54.14
74403;BME280;62837;51.082;13.744;2024-01-30T10:57:47;101803.02;;;7.57;53.73
74403;BME280;62837;51.082;13.744;2024-01-30T11:00:20;101793.98;;;7.60;53.90
74403;BME280;62837;51.082;13.744;2024-01-30T11:02:53;101804.38;;;7.62;53.56
74403;BME280;62837;51.082;13.744;2024-01-30T11:05:29;101791.41;;;7.61;53.63
74403;BME280;62837;51.082;13.744;2024-01-30T11:08:13;101789.39;;;7.63;54.02
74403;BME280;62837;51.082;13.744;2024-01-30T11:10:47;101783.02;;;7.60;53.76
74403;BME280;62837;51.082;13.744;2024-01-30T11:13:20;101787.13;;;7.56;53.94
74403;BME280;62837;51.082;13.744;2024-01-30T11:15:51;101788.99;;;7.48;53.93
74403;BME280;62837;51.082;13.744;2024-01-30T11:18:26;101790.95;;;7.41;54.14
74403;BME280;62837;51.082;13.744;2024-01-30T11:20:59;101781.30;;;7.29;54.39
74403;BME280;62837;51.082;13.744;2024-01-30T11:23:32;101781.80;;;7.19;54.46
74403;BME280;62837;51.082;13.744;2024-01-30T11:26:05;101767.58;;;7.11;54.66
74403;BME280;62837;51.082;13.744;2024-01-30T11:28:36;101767.94;;;7.08;54.91
74403;BME280;62837;51.082;13.744;2024-01-30T11:31:08;101767.81;;;7.07;54.87
74403;BME280;62837;51.082;13.744;2024-01-30T11:33:41;101772.12;;;7.04;55.06
74403;BME280;62837;51.082;13.744;2024-01-30T11:36:15;101768.36;;;6.99;55.06
74403;BME280;62837;51.082;13.744;2024-01-30T11:38:47;101776.96;;;6.90;55.12
74403;BME280;62837;51.082;13.744;2024-01-30T11:41:19;101766.48;;;6.83;55.23
74403;BME280;62837;51.082;13.744;2024-01-30T11:43:54;101763.23;;;6.80;55.63
74403;BME280;62837;51.082;13.744;2024-01-30T11:46:27;101767.97;;;6.79;55.54
74403;BME280;62837;51.082;13.744;2024-01-30T11:48:59;101761.73;;;6.76;55.32
74403;BME280;62837;51.082;13.744;2024-01-30T11:51:32;101757.44;;;6.74;55.52
74403;BME280;62837;51.082;13.744;2024-01-30T11:54:03;101751.91;;;6.76;55.47
74403;BME280;62837;51.082;13.744;2024-01-30T11:56:33;101747.00;;;6.78;55.73
74403;BME280;62837;51.082;13.744;2024-01-30T11:59:04;101748.66;;;6.77;55.47
74403;BME280;62837;51.082;13.744;2024-01-30T12:01:35;101747.75;;;6.73;55.65
74403;BME280;62837;51.082;13.744;2024-01-30T12:04:07;101744.78;;;6.68;55.64
74403;BME280;62837;51.082;13.744;2024-01-30T12:06:41;101738.79;;;6.65;55.69
74403;BME280;62837;51.082;13.744;2024-01-30T12:09:12;101741.35;;;6.62;55.64
74403;BME280;62837;51.082;13.744;2024-01-30T12:11:47;101736.80;;;6.61;55.79
74403;BME280;62837;51.082;13.744;2024-01-30T12:14:18;101741.13;;;6.61;55.88
74403;BME280;62837;51.082;13.744;2024-01-30T12:16:51;101742.81;;;6.63;55.97
74403;BME280;62837;51.082;13.744;2024-01-30T12:19:25;101736.52;;;6.65;55.96
74403;BME280;62837;51.082;13.744;2024-01-30T12:21:57;101739.49;;;6.64;55.84
74403;BME280;62837;51.082;13.744;2024-01-30T12:24:29;101730.06;;;6.62;55.96
74403;BME280;62837;51.082;13.744;2024-01-30T12:27:01;101727.41;;;6.60;55.99
74403;BME280;62837;51.082;13.744;2024-01-30T12:29:34;101730.18;;;6.60;56.34
74403;BME280;62837;51.082;13.744;2024-01-30T12:32:09;101729.05;;;6.63;56.20
74403;BME280;62837;51.082;13.744;2024-01-30T12:34:45;101730.54;;;6.64;56.33
74403;BME280;62837;51.082;13.744;2024-01-30T12:37:29;101731.39;;;6.65;56.08
74403;BME280;62837;51.082;13.744;2024-01-30T12:40:01;101723.05;;;6.64;56.08
74403;BME280;62837;51.082;13.744;2024-01-30T12:42:31;101722.32;;;6.66;56.08
74403;BME280;62837;51.082;13.744;2024-01-30T12:45:03;101723.67;;;6.68;56.85
74403;BME280;62837;51.082;13.744;2024-01-30T12:47:35;101713.92;;;6.76;57.02
74403;BME280;62837;51.082;13.744;2024-01-30T12:50:06;101717.38;;;6.78;56.22
74403;BME280;62837;51.082;13.744;2024-01-30T12:52:38;101718.73;;;6.80;57.67
74403;BME280;62837;51.082;13.744;2024-01-30T12:55:09;101714.67;;;6.81;56.24
74403;BME280;62837;51.082;13.744;2024-01-30T12:57:40;101712.38;;;6.79;55.87
74403;BME280;62837;51.082;13.744;2024-01-30T13:00:12;101704.59;;;6.76;55.86
74403;BME280;62837;51.082;13.744;2024-01-30T13:02:42;101704.70;;;6.72;55.88
74403;BME280;62837;51.082;13.744;2024-01-30T13:05:14;101702.19;;;6.69;55.83
74403;BME280;62837;51.082;13.744;2024-01-30T13:07:45;101703.86;;;6.68;56.00
74403;BME280;62837;51.082;13.744;2024-01-30T13:10:17;101702.48;;;6.66;56.13
74403;BME280;62837;51.082;13.744;2024-01-30T13:12:47;101700.11;;;6.66;55.87